createdAt,value
2022-10-02T00:00:57.222Z,72.8
2022-10-02T00:02:13.405Z,72.8
2022-10-02T00:03:29.593Z,72.7
2022-10-02T00:04:45.465Z,72.7
2022-10-02T00:06:01.982Z,72.6
2022-10-02T00:07:17.829Z,72.7
2022-10-02T00:08:34.356Z,72.4
2022-10-02T00:09:50.551Z,72.5
2022-10-02T00:11:06.742Z,72.6
2022-10-02T00:12:22.921Z,72.6
2022-10-02T00:13:38.770Z,72.6
2022-10-02T00:14:54.962Z,72.6
2022-10-02T00:16:10.514Z,72.8
2022-10-02T00:17:26.686Z,72.7
2022-10-02T00:18:42.884Z,72.7
2022-10-02T00:19:58.739Z,72.8
2022-10-02T00:21:14.928Z,72.8
2022-10-02T00:22:31.113Z,72.7
2022-10-02T00:23:47.639Z,72.8
2022-10-02T00:25:03.838Z,72.5
2022-10-02T00:26:20.017Z,72.4
2022-10-02T00:27:36.205Z,72.6
2022-10-02T00:28:52.050Z,72.6
2022-10-02T00:30:08.586Z,72.4
2022-10-02T00:31:24.767Z,72.4
2022-10-02T00:32:39.991Z,72.6
2022-10-02T00:33:55.833Z,72.5
2022-10-02T00:35:12.360Z,72.6
2022-10-02T00:36:28.551Z,72.6
2022-10-02T00:37:44.736Z,72.5
2022-10-02T00:39:00.936Z,72.4
2022-10-02T00:40:17.113Z,72.7
2022-10-02T00:41:33.302Z,72.6
2022-10-02T00:42:49.157Z,72.5
2022-10-02T00:44:05.344Z,72.6
2022-10-02T00:45:21.863Z,72.3
2022-10-02T00:46:38.066Z,72.4
2022-10-02T00:47:54.254Z,72.6
2022-10-02T00:49:09.455Z,72.6
2022-10-02T00:50:25.640Z,72.6
2022-10-02T00:51:41.831Z,72.7
2022-10-02T00:52:58.032Z,72.5
2022-10-02T00:54:14.219Z,72.5
2022-10-02T00:55:30.406Z,72.6
2022-10-02T00:56:46.590Z,72.6
2022-10-02T00:58:02.774Z,72.5
2022-10-02T00:59:18.624Z,72.5
2022-10-02T01:00:35.162Z,72.6
2022-10-02T01:01:51.350Z,72.5
2022-10-02T01:03:07.540Z,72.4
2022-10-02T01:04:23.733Z,72.4
2022-10-02T01:05:38.931Z,72.4
2022-10-02T01:06:54.784Z,72.4
2022-10-02T01:08:11.312Z,72.5
2022-10-02T01:09:27.493Z,72.5
2022-10-02T01:10:43.344Z,72.3
2022-10-02T01:11:59.885Z,72.6
2022-10-02T01:13:15.081Z,72.5
2022-10-02T01:14:31.266Z,72.4
2022-10-02T01:15:47.456Z,72.4
2022-10-02T01:17:03.651Z,72.5
2022-10-02T01:18:19.846Z,72.5
2022-10-02T01:19:36.023Z,72.5
2022-10-02T01:20:52.219Z,72.3
2022-10-02T01:22:08.054Z,72.3
2022-10-02T01:23:24.601Z,72.3
2022-10-02T01:24:40.795Z,72.3
2022-10-02T01:25:56.626Z,72.3
2022-10-02T01:27:13.172Z,72.1
2022-10-02T01:28:29.350Z,72.4
2022-10-02T01:29:44.206Z,72.4
2022-10-02T01:31:00.756Z,72.5
2022-10-02T01:32:16.945Z,72.3
2022-10-02T01:33:33.116Z,72.4
2022-10-02T01:34:49.308Z,72.4
2022-10-02T01:36:05.500Z,72.3
2022-10-02T01:37:21.339Z,72.3
2022-10-02T01:38:37.533Z,72.5
2022-10-02T01:39:54.062Z,72.4
2022-10-02T01:41:10.259Z,72.4
2022-10-02T01:42:26.442Z,72.5
2022-10-02T01:43:42.643Z,72.4
2022-10-02T01:44:58.827Z,72.6
2022-10-02T01:46:14.030Z,72.6
2022-10-02T01:47:29.868Z,72.8
2022-10-02T01:48:46.413Z,72.5
2022-10-02T01:50:02.590Z,72.6
2022-10-02T01:51:18.438Z,72.5
2022-10-02T01:52:34.617Z,72.5
2022-10-02T01:53:51.160Z,72.6
2022-10-02T01:55:07.351Z,72.8
2022-10-02T01:56:23.543Z,72.7
2022-10-02T01:57:39.728Z,72.8
2022-10-02T01:58:55.560Z,72.8
2022-10-02T02:00:11.751Z,72.8
2022-10-02T02:01:28.305Z,72.8
2022-10-02T02:02:43.501Z,72.8
2022-10-02T02:03:59.340Z,72.8
2022-10-02T02:05:15.889Z,72.9
2022-10-02T02:06:31.712Z,72.8
2022-10-02T02:07:47.899Z,72.9
2022-10-02T02:09:04.443Z,72.9
2022-10-02T02:10:20.629Z,72.7
2022-10-02T02:11:36.826Z,72.8
2022-10-02T02:12:52.663Z,72.8
2022-10-02T02:14:09.212Z,72.7
2022-10-02T02:15:25.391Z,72.8
2022-10-02T02:16:41.575Z,72.7
2022-10-02T02:17:57.775Z,72.7
2022-10-02T02:19:12.981Z,72.7
2022-10-02T02:20:29.159Z,72.7
2022-10-02T02:21:45.348Z,72.8
2022-10-02T02:23:01.185Z,72.6
2022-10-02T02:24:17.723Z,72.7
2022-10-02T02:25:33.930Z,72.7
2022-10-02T02:26:50.109Z,72.8
2022-10-02T02:28:05.928Z,72.9
2022-10-02T02:29:22.491Z,72.9
2022-10-02T02:30:38.318Z,73
2022-10-02T02:31:54.873Z,72.9
2022-10-02T02:33:10.683Z,72.9
2022-10-02T02:34:26.875Z,72.8
2022-10-02T02:35:42.458Z,72.8
2022-10-02T02:36:58.646Z,72.9
2022-10-02T02:38:14.467Z,72.9
2022-10-02T02:39:31.015Z,72.9
2022-10-02T02:40:46.832Z,73
2022-10-02T02:42:03.399Z,72.9
2022-10-02T02:43:19.210Z,72.9
2022-10-02T02:44:35.779Z,73
2022-10-02T02:45:51.585Z,72.9
2022-10-02T02:47:08.142Z,72.9
2022-10-02T02:48:24.343Z,72.9
2022-10-02T02:49:40.527Z,72.9
2022-10-02T02:50:56.347Z,73
2022-10-02T02:52:11.926Z,73
2022-10-02T02:53:28.112Z,72.8
2022-10-02T02:54:43.920Z,72.9
2022-10-02T02:56:00.489Z,73
2022-10-02T02:57:16.686Z,72.9
2022-10-02T02:58:32.864Z,72.9
2022-10-02T02:59:49.056Z,73
2022-10-02T03:01:04.884Z,72.9
2022-10-02T03:02:21.441Z,72.9
2022-10-02T03:03:37.614Z,73
2022-10-02T03:04:53.800Z,72.9
2022-10-02T03:06:09.992Z,72.8
2022-10-02T03:07:25.827Z,72.9
2022-10-02T03:08:41.016Z,72.9
2022-10-02T03:09:57.591Z,72.9
2022-10-02T03:11:13.774Z,73
2022-10-02T03:12:29.955Z,72.9
2022-10-02T03:13:46.148Z,72.9
2022-10-02T03:15:02.330Z,72.8
2022-10-02T03:16:18.526Z,72.8
2022-10-02T03:17:34.722Z,73
2022-10-02T03:18:50.529Z,73
2022-10-02T03:20:07.101Z,72.9
2022-10-02T03:21:23.280Z,73
2022-10-02T03:22:39.475Z,73
2022-10-02T03:23:55.281Z,72.9
2022-10-02T03:25:10.873Z,73
2022-10-02T03:26:27.063Z,73
2022-10-02T03:27:43.241Z,73
2022-10-02T03:28:59.426Z,73
2022-10-02T03:30:15.626Z,72.9
2022-10-02T03:31:31.438Z,73.1
2022-10-02T03:32:48.002Z,73
2022-10-02T03:34:03.816Z,73
2022-10-02T03:35:20.382Z,73.1
2022-10-02T03:36:36.562Z,73.1
2022-10-02T03:37:52.749Z,73.1
2022-10-02T03:39:08.563Z,73
2022-10-02T03:40:25.130Z,73.1
2022-10-02T03:41:39.960Z,73.1
2022-10-02T03:42:56.532Z,73.1
2022-10-02T03:45:28.903Z,73.1
2022-10-02T03:46:44.723Z,73.1
2022-10-02T03:48:01.280Z,73.2
2022-10-02T03:49:17.467Z,73.1
2022-10-02T03:50:33.654Z,73.1
2022-10-02T03:51:49.463Z,73.2
2022-10-02T03:53:06.040Z,73.2
2022-10-02T03:54:21.847Z,73.2
2022-10-02T03:55:38.034Z,73.2
2022-10-02T03:56:54.609Z,73.2
2022-10-02T03:58:09.430Z,73.2
2022-10-02T03:59:25.995Z,73.2
2022-10-02T04:00:42.183Z,73.2
2022-10-02T04:01:57.990Z,73.1
2022-10-02T04:03:14.568Z,73.2
2022-10-02T04:04:30.758Z,73.1
2022-10-02T04:05:46.935Z,73.2
2022-10-02T04:07:03.125Z,73.2
2022-10-02T04:08:18.934Z,73.2
2022-10-02T04:09:35.127Z,73.2
2022-10-02T04:10:51.696Z,73.2
2022-10-02T04:12:07.893Z,73.2
2022-10-02T04:13:24.067Z,73.2
2022-10-02T04:14:39.285Z,73.3
2022-10-02T04:15:55.474Z,73.3
2022-10-02T04:17:11.270Z,73.2
2022-10-02T04:18:27.853Z,73.2
2022-10-02T04:19:43.649Z,73.2
2022-10-02T04:20:59.838Z,73.2
2022-10-02T04:22:16.417Z,73.2
2022-10-02T04:23:32.226Z,73.2
2022-10-02T04:24:48.409Z,73.2
2022-10-02T04:26:05.002Z,73.1
2022-10-02T04:27:21.166Z,73.1
2022-10-02T04:28:37.367Z,73.2
2022-10-02T04:29:53.000Z,73.1
2022-10-02T04:31:08.759Z,73
2022-10-02T04:32:24.547Z,73.1
2022-10-02T04:33:41.134Z,73.1
2022-10-02T04:34:57.326Z,73.1
2022-10-02T04:36:13.113Z,73.1
2022-10-02T04:37:29.689Z,73
2022-10-02T04:38:45.880Z,73.1
2022-10-02T04:40:01.679Z,72.8
2022-10-02T04:41:18.260Z,73
2022-10-02T04:42:34.457Z,72.9
2022-10-02T04:43:50.634Z,73
2022-10-02T04:45:06.443Z,72.8
2022-10-02T04:46:23.019Z,73
2022-10-02T04:47:37.836Z,73
2022-10-02T04:48:54.017Z,73
2022-10-02T04:50:10.212Z,72.9
2022-10-02T04:51:26.785Z,72.9
2022-10-02T04:52:42.591Z,72.8
2022-10-02T04:53:59.177Z,72.9
2022-10-02T04:55:14.958Z,73
2022-10-02T04:56:31.555Z,72.9
2022-10-02T04:57:47.741Z,73.1
2022-10-02T04:59:03.917Z,73.1
2022-10-02T05:00:20.105Z,73.3
2022-10-02T05:01:36.302Z,73
2022-10-02T05:02:52.499Z,73.2
2022-10-02T05:04:07.707Z,73.2
2022-10-02T05:05:23.896Z,73.1
2022-10-02T05:06:40.074Z,73.1
2022-10-02T05:07:56.265Z,73.1
2022-10-02T05:09:12.462Z,73.1
2022-10-02T05:10:28.652Z,73.2
2022-10-02T05:11:44.829Z,73.1
2022-10-02T05:13:01.010Z,72.9
2022-10-02T05:14:17.212Z,73.1
2022-10-02T05:15:33.400Z,73
2022-10-02T05:16:49.577Z,73
2022-10-02T05:18:05.370Z,73
2022-10-02T05:19:21.959Z,73
2022-10-02T05:20:37.176Z,73.1
2022-10-02T05:21:53.000Z,72.9
2022-10-02T05:23:09.551Z,73.1
2022-10-02T05:24:25.750Z,73
2022-10-02T05:25:41.530Z,72.9
2022-10-02T05:26:58.122Z,72.8
2022-10-02T05:28:12.931Z,72.8
2022-10-02T05:29:29.506Z,72.8
2022-10-02T05:30:45.697Z,72.8
2022-10-02T05:32:01.893Z,72.8
2022-10-02T05:33:17.683Z,72.8
2022-10-02T05:34:33.869Z,72.9
2022-10-02T05:35:50.451Z,72.9
2022-10-02T05:37:06.250Z,72.5
2022-10-02T05:38:22.444Z,72.7
2022-10-02T05:39:38.615Z,72.9
2022-10-02T05:40:54.806Z,73
2022-10-02T05:42:11.410Z,72.9
2022-10-02T05:43:27.583Z,73
2022-10-02T05:44:42.795Z,72.9
2022-10-02T05:45:58.578Z,72.9
2022-10-02T05:47:15.172Z,72.6
2022-10-02T05:48:30.955Z,72.7
2022-10-02T05:49:47.548Z,72.8
2022-10-02T05:51:03.738Z,72.8
2022-10-02T05:52:19.524Z,72.8
2022-10-02T05:53:35.715Z,72.7
2022-10-02T05:54:52.316Z,72.7
2022-10-02T05:56:08.507Z,72.7
2022-10-02T05:57:24.689Z,72.7
2022-10-02T05:58:40.885Z,72.6
2022-10-02T05:59:57.062Z,72.6
2022-10-02T06:01:12.278Z,72.4
2022-10-02T06:02:28.469Z,72.3
2022-10-02T06:03:44.520Z,72.1
2022-10-02T06:05:00.832Z,72
2022-10-02T06:06:17.029Z,72.1
2022-10-02T06:07:33.215Z,71.9
2022-10-02T06:08:49.405Z,71.8
2022-10-02T06:10:05.603Z,71.9
2022-10-02T06:11:21.658Z,71.9
2022-10-02T06:12:37.982Z,71.8
2022-10-02T06:13:54.033Z,71.8
2022-10-02T06:15:10.347Z,72.1
2022-10-02T06:16:26.548Z,72
2022-10-02T06:17:41.748Z,72.3
2022-10-02T06:18:57.802Z,72.2
2022-10-02T06:20:14.126Z,72.2
2022-10-02T06:21:30.188Z,72.2
2022-10-02T06:22:46.505Z,72.2
2022-10-02T06:24:02.563Z,72.3
2022-10-02T06:25:18.876Z,72.2
2022-10-02T06:26:35.076Z,72.2
2022-10-02T06:27:51.112Z,72.1
2022-10-02T06:29:07.300Z,72.3
2022-10-02T06:30:23.635Z,72.2
2022-10-02T06:31:39.683Z,72
2022-10-02T06:32:56.017Z,72
2022-10-02T06:34:11.085Z,72.1
2022-10-02T06:35:27.416Z,72.1
2022-10-02T06:36:43.451Z,72
2022-10-02T06:37:59.781Z,71.8
2022-10-02T06:39:15.830Z,72
2022-10-02T06:40:32.159Z,72
2022-10-02T06:41:48.214Z,71.9
2022-10-02T06:43:04.393Z,71.9
2022-10-02T06:44:20.599Z,71.9
2022-10-02T06:45:36.910Z,71.8
2022-10-02T06:46:53.100Z,71.7
2022-10-02T06:48:09.288Z,71.8
2022-10-02T06:49:25.341Z,71.7
2022-10-02T06:50:40.543Z,71.7
2022-10-02T06:51:56.721Z,71.7
2022-10-02T06:53:13.048Z,71.7
2022-10-02T06:54:29.245Z,71.6
2022-10-02T06:55:45.432Z,71.7
2022-10-02T06:57:01.479Z,71.8
2022-10-02T06:58:17.815Z,71.6
2022-10-02T06:59:33.995Z,71.6
2022-10-02T07:00:50.179Z,71.8
2022-10-02T07:02:06.359Z,71.7
2022-10-02T07:03:22.553Z,71.7
2022-10-02T07:04:38.590Z,71.7
2022-10-02T07:05:54.926Z,71.6
2022-10-02T07:07:09.993Z,71.6
2022-10-02T07:08:26.184Z,71.6
2022-10-02T07:09:42.373Z,71.7
2022-10-02T07:10:58.685Z,71.6
2022-10-02T07:12:14.737Z,71.5
2022-10-02T07:13:31.061Z,71.7
2022-10-02T07:14:47.108Z,71.5
2022-10-02T07:16:03.441Z,71.7
2022-10-02T07:17:19.492Z,71.7
2022-10-02T07:18:35.809Z,71.7
2022-10-02T07:19:51.861Z,71.8
2022-10-02T07:21:08.056Z,71.6
2022-10-02T07:22:24.390Z,71.6
2022-10-02T07:23:39.579Z,71.7
2022-10-02T07:24:55.615Z,71.6
2022-10-02T07:26:11.961Z,71.7
2022-10-02T07:27:28.142Z,71.7
2022-10-02T07:28:44.330Z,71.7
2022-10-02T07:30:00.518Z,71.6
2022-10-02T07:31:16.704Z,71.6
2022-10-02T07:32:32.885Z,71.6
2022-10-02T07:33:49.074Z,71.5
2022-10-02T07:35:05.265Z,71.5
2022-10-02T07:36:21.460Z,71.6
2022-10-02T07:37:37.640Z,71.4
2022-10-02T07:38:53.833Z,71.4
2022-10-02T07:40:09.034Z,71.5
2022-10-02T07:41:25.213Z,71.4
2022-10-02T07:42:41.406Z,71.5
2022-10-02T07:43:57.593Z,71.5
2022-10-02T07:45:13.636Z,71.4
2022-10-02T07:46:29.978Z,71.3
2022-10-02T07:47:46.164Z,71.3
2022-10-02T07:49:02.342Z,71.2
2022-10-02T07:50:18.378Z,71.1
2022-10-02T07:51:34.711Z,71.1
2022-10-02T07:52:50.902Z,71.1
2022-10-02T07:54:07.088Z,71.2
2022-10-02T07:55:23.283Z,71.2
2022-10-02T07:56:38.487Z,71.2
2022-10-02T07:57:54.676Z,71.2
2022-10-02T07:59:10.866Z,71.2
2022-10-02T08:00:26.884Z,71.2
2022-10-02T08:01:43.241Z,71.1
2022-10-02T08:02:59.417Z,71.2
2022-10-02T08:04:15.617Z,71.1
2022-10-02T08:05:31.641Z,71.1
2022-10-02T08:06:47.992Z,71
2022-10-02T08:08:04.176Z,71
2022-10-02T08:09:20.349Z,70.9
2022-10-02T08:10:36.548Z,70.8
2022-10-02T08:11:52.729Z,70.9
2022-10-02T08:13:07.927Z,70.8
2022-10-02T08:14:24.123Z,70.7
2022-10-02T08:15:40.314Z,70.7
2022-10-02T08:16:56.488Z,70.6
2022-10-02T08:18:12.520Z,70.6
2022-10-02T08:19:28.872Z,70.7
2022-10-02T08:20:44.896Z,70.7
2022-10-02T08:22:01.253Z,70.6
2022-10-02T08:23:17.433Z,70.5
2022-10-02T08:24:33.464Z,70.5
2022-10-02T08:25:49.817Z,70.4
2022-10-02T08:27:05.986Z,70.3
2022-10-02T08:28:22.180Z,70.2
2022-10-02T08:29:37.390Z,70.2
2022-10-02T08:30:53.415Z,70.3
2022-10-02T08:32:09.605Z,70
2022-10-02T08:33:25.947Z,70.2
2022-10-02T08:34:42.129Z,70
2022-10-02T08:35:58.153Z,69.8
2022-10-02T08:38:30.692Z,69.6
2022-10-02T08:39:46.883Z,69.5
2022-10-02T08:41:03.079Z,69.3
2022-10-02T08:42:19.266Z,69.3
2022-10-02T08:43:35.286Z,69.2
2022-10-02T08:44:51.634Z,69.4
2022-10-02T08:46:06.833Z,69.4
2022-10-02T08:47:23.019Z,69.4
2022-10-02T08:48:39.057Z,69.5
2022-10-02T08:49:55.390Z,69.4
2022-10-02T08:51:11.423Z,69.5
2022-10-02T08:52:27.768Z,69.4
2022-10-02T08:53:43.795Z,69.2
2022-10-02T08:55:00.145Z,69.2
2022-10-02T08:56:16.331Z,69
2022-10-02T08:57:32.519Z,69
2022-10-02T08:58:48.706Z,68.9
2022-10-02T09:00:04.888Z,69
2022-10-02T09:01:21.085Z,68.9
2022-10-02T09:02:36.286Z,68.7
2022-10-02T09:03:52.485Z,68.8
2022-10-02T09:05:08.653Z,68.7
2022-10-02T09:06:24.690Z,68.8
2022-10-02T09:07:41.031Z,68.9
2022-10-02T09:08:57.233Z,68.9
2022-10-02T09:10:13.244Z,68.8
2022-10-02T09:11:29.594Z,68.8
2022-10-02T09:12:45.788Z,68.7
2022-10-02T09:14:01.805Z,68.7
2022-10-02T09:15:18.151Z,68.8
2022-10-02T09:16:34.349Z,68.7
2022-10-02T09:17:50.539Z,68.7
2022-10-02T09:19:05.736Z,68.6
2022-10-02T09:20:21.927Z,68.3
2022-10-02T09:21:38.109Z,68.4
2022-10-02T09:22:54.292Z,68.6
2022-10-02T09:24:10.310Z,68.6
2022-10-02T09:25:26.677Z,68.7
2022-10-02T09:26:42.870Z,68.5
2022-10-02T09:27:58.875Z,68.7
2022-10-02T09:29:15.071Z,68.7
2022-10-02T09:30:31.429Z,68.7
2022-10-02T09:31:47.615Z,68.6
2022-10-02T09:33:03.798Z,68.7
2022-10-02T09:34:19.986Z,68.4
2022-10-02T09:35:35.195Z,68.4
2022-10-02T09:36:51.374Z,68.4
2022-10-02T09:38:07.571Z,68.6
2022-10-02T09:39:23.755Z,68.6
2022-10-02T09:40:39.758Z,68.5
2022-10-02T09:41:55.944Z,68.3
2022-10-02T09:43:11.334Z,68.2
2022-10-02T09:44:27.340Z,68.1
2022-10-02T09:45:43.713Z,68.1
2022-10-02T09:46:59.890Z,68
2022-10-02T09:48:16.079Z,68
2022-10-02T09:49:32.275Z,68
2022-10-02T09:50:48.449Z,67.9
2022-10-02T09:52:04.476Z,68
2022-10-02T09:53:20.662Z,68
2022-10-02T09:54:37.013Z,67.9
2022-10-02T09:55:53.215Z,67.9
2022-10-02T09:57:09.226Z,67.8
2022-10-02T09:58:25.591Z,68
2022-10-02T09:59:40.616Z,68.1
2022-10-02T10:00:56.981Z,68
2022-10-02T10:02:13.158Z,67.8
2022-10-02T10:03:29.345Z,67.5
2022-10-02T10:04:45.353Z,67.5
2022-10-02T10:06:01.730Z,67.5
2022-10-02T10:07:17.737Z,67.3
2022-10-02T10:08:34.099Z,66.9
2022-10-02T10:09:50.285Z,66.8
2022-10-02T10:11:06.464Z,66.9
2022-10-02T10:12:22.651Z,67
2022-10-02T10:13:38.843Z,67.3
2022-10-02T10:14:55.034Z,67.7
2022-10-02T10:16:10.232Z,67.9
2022-10-02T10:17:26.430Z,68.1
2022-10-02T10:18:42.607Z,68.1
2022-10-02T10:19:58.801Z,68.4
2022-10-02T10:21:14.996Z,68.4
2022-10-02T10:22:31.183Z,68.6
2022-10-02T10:23:47.168Z,68.6
2022-10-02T10:25:03.547Z,68.7
2022-10-02T10:26:19.730Z,68.7
2022-10-02T10:27:35.914Z,68.7
2022-10-02T10:28:52.113Z,68.7
2022-10-02T10:30:08.107Z,68.7
2022-10-02T10:31:24.300Z,68.7
2022-10-02T10:32:39.687Z,68.7
2022-10-02T10:33:55.694Z,68.6
2022-10-02T10:35:12.060Z,68.5
2022-10-02T10:36:28.258Z,68.2
2022-10-02T10:37:44.260Z,68.1
2022-10-02T10:39:00.433Z,68.1
2022-10-02T10:40:16.823Z,68.2
2022-10-02T10:41:32.812Z,68.1
2022-10-02T10:42:49.193Z,68.2
2022-10-02T10:44:05.385Z,68.1
2022-10-02T10:45:21.373Z,67.9
2022-10-02T10:46:37.759Z,67.8
2022-10-02T10:47:53.928Z,67.6
2022-10-02T10:49:09.149Z,66
2022-10-02T10:50:25.337Z,65.5
2022-10-02T10:51:41.317Z,65.8
2022-10-02T10:52:57.695Z,66.2
2022-10-02T10:54:13.884Z,66.5
2022-10-02T10:55:29.878Z,66.9
2022-10-02T10:56:46.266Z,67.2
2022-10-02T10:58:02.444Z,67.3
2022-10-02T10:59:18.632Z,67.3
2022-10-02T11:00:34.644Z,67.3
2022-10-02T11:01:51.010Z,67.4
2022-10-02T11:03:07.202Z,67.4
2022-10-02T11:04:23.392Z,67.5
2022-10-02T11:05:38.587Z,67.6
2022-10-02T11:06:54.578Z,67.4
2022-10-02T11:08:10.778Z,67.2
2022-10-02T11:09:26.952Z,67
2022-10-02T11:10:43.332Z,66.6
2022-10-02T11:11:59.531Z,66.7
2022-10-02T11:13:15.714Z,66.7
2022-10-02T11:14:31.906Z,66.5
2022-10-02T11:15:47.903Z,66
2022-10-02T11:17:04.269Z,64.5
2022-10-02T11:18:20.470Z,63.6
2022-10-02T11:19:36.660Z,63.4
2022-10-02T11:20:52.849Z,62.9
2022-10-02T11:22:07.854Z,63.3
2022-10-02T11:23:24.035Z,64.2
2022-10-02T11:24:40.415Z,64.6
2022-10-02T11:25:56.603Z,63.3
2022-10-02T11:27:12.797Z,62.5
2022-10-02T11:28:28.972Z,63.2
2022-10-02T11:29:45.173Z,64.4
2022-10-02T11:31:01.151Z,65.2
2022-10-02T11:32:17.541Z,65.8
2022-10-02T11:33:33.735Z,66.4
2022-10-02T11:34:49.923Z,66.8
2022-10-02T11:36:06.101Z,67.1
2022-10-02T11:37:22.295Z,67.3
2022-10-02T11:38:37.492Z,67.4
2022-10-02T11:39:53.678Z,67.6
2022-10-02T11:41:09.865Z,67.7
2022-10-02T11:42:26.066Z,67.8
2022-10-02T11:43:42.237Z,67.8
2022-10-02T11:44:58.426Z,67.9
2022-10-02T11:46:14.423Z,67.9
2022-10-02T11:47:30.800Z,67.7
2022-10-02T11:48:47.000Z,67.6
2022-10-02T11:50:03.178Z,67.4
2022-10-02T11:51:19.374Z,65.9
2022-10-02T11:52:35.565Z,64.3
2022-10-02T11:53:51.736Z,63.4
2022-10-02T11:55:06.952Z,63.2
2022-10-02T11:56:23.129Z,62.6
2022-10-02T11:57:39.331Z,62.1
2022-10-02T11:58:55.519Z,61.7
2022-10-02T12:00:11.501Z,61.5
2022-10-02T12:01:27.884Z,61.1
2022-10-02T12:02:43.867Z,60.9
2022-10-02T12:04:00.065Z,60.7
2022-10-02T12:05:16.448Z,60.5
2022-10-02T12:06:32.635Z,60.3
2022-10-02T12:07:48.823Z,60
2022-10-02T12:09:04.807Z,59.7
2022-10-02T12:10:21.193Z,59.3
2022-10-02T12:11:36.199Z,59
2022-10-02T12:12:52.372Z,58.7
2022-10-02T12:14:08.783Z,58.4
2022-10-02T12:15:24.962Z,58.4
2022-10-02T12:16:41.150Z,58
2022-10-02T12:17:57.341Z,57.7
2022-10-02T12:19:13.515Z,57.4
2022-10-02T12:20:29.710Z,57.1
2022-10-02T12:21:45.901Z,56.9
2022-10-02T12:23:01.879Z,56.7
2022-10-02T12:24:18.067Z,56.6
2022-10-02T12:25:34.471Z,56.4
2022-10-02T12:26:50.651Z,56.3
2022-10-02T12:28:05.842Z,56.1
2022-10-02T12:29:22.039Z,56.1
2022-10-02T12:30:38.218Z,55.9
2022-10-02T12:31:54.207Z,55.8
2022-10-02T12:33:10.610Z,55.7
2022-10-02T12:34:26.791Z,55.5
2022-10-02T12:35:42.756Z,55.3
2022-10-02T12:36:58.961Z,55.1
2022-10-02T12:38:15.149Z,55
2022-10-02T12:39:31.330Z,54.7
2022-10-02T12:40:47.725Z,54.6
2022-10-02T12:42:03.903Z,54.5
2022-10-02T12:43:20.091Z,54.4
2022-10-02T12:44:35.310Z,54.4
2022-10-02T12:45:51.497Z,54.3
2022-10-02T12:47:07.674Z,56.1
2022-10-02T12:48:23.856Z,58
2022-10-02T12:49:40.047Z,59.1
2022-10-02T12:50:56.036Z,60
2022-10-02T12:52:12.429Z,60.6
2022-10-02T12:53:28.622Z,61
2022-10-02T12:54:44.589Z,61.4
2022-10-02T12:56:00.996Z,61.7
2022-10-02T12:57:17.173Z,62
2022-10-02T12:58:33.369Z,62.2
2022-10-02T12:59:49.339Z,62.5
2022-10-02T13:01:04.761Z,62.6
2022-10-02T13:02:20.733Z,62.9
2022-10-02T13:03:36.917Z,63.1
2022-10-02T13:04:53.327Z,63.2
2022-10-02T13:06:09.499Z,63.2
2022-10-02T13:07:25.700Z,63.3
2022-10-02T13:08:41.883Z,63
2022-10-02T13:09:58.075Z,62.8
2022-10-02T13:11:14.260Z,62.9
2022-10-02T13:12:30.444Z,62.9
2022-10-02T13:13:46.624Z,62.6
2022-10-02T13:15:02.589Z,62.9
2022-10-02T13:16:18.777Z,63.1
2022-10-02T13:17:33.995Z,63.3
2022-10-02T13:18:50.399Z,63.1
2022-10-02T13:20:06.589Z,63
2022-10-02T13:21:22.777Z,63
2022-10-02T13:22:38.736Z,63
2022-10-02T13:23:55.139Z,63.1
2022-10-02T13:25:11.123Z,63.4
2022-10-02T13:26:27.293Z,63.6
2022-10-02T13:27:43.715Z,63.7
2022-10-02T13:28:59.671Z,63.7
2022-10-02T13:30:16.081Z,63.9
2022-10-02T13:31:32.261Z,64.1
2022-10-02T13:32:48.000Z,64.2
2022-10-02T13:34:03.659Z,64.1
2022-10-02T13:35:19.846Z,63.9
2022-10-02T13:36:36.027Z,63.6
2022-10-02T13:37:52.228Z,63.5
2022-10-02T13:39:08.403Z,63.7
2022-10-02T13:40:24.373Z,64
2022-10-02T13:41:40.790Z,64.2
2022-10-02T13:42:56.975Z,64.4
2022-10-02T13:44:13.151Z,64.5
2022-10-02T13:45:29.113Z,64.5
2022-10-02T13:46:45.319Z,64.3
2022-10-02T13:48:01.494Z,64.3
2022-10-02T13:49:17.907Z,64.5
2022-10-02T13:50:33.113Z,64.6
2022-10-02T13:51:49.299Z,64.8
2022-10-02T13:53:05.491Z,65.1
2022-10-02T13:54:21.451Z,65.1
2022-10-02T13:55:37.630Z,65.2
2022-10-02T13:56:54.058Z,65.3
2022-10-02T13:58:09.250Z,65.3
2022-10-02T13:59:25.444Z,65.3
2022-10-02T14:00:41.640Z,65.3
2022-10-02T14:01:57.824Z,65.1
2022-10-02T14:03:13.790Z,64.7
2022-10-02T14:04:30.188Z,64.4
2022-10-02T14:05:46.387Z,64.2
2022-10-02T14:07:02.560Z,64.1
2022-10-02T14:08:18.531Z,64.1
2022-10-02T14:09:34.939Z,64.3
2022-10-02T14:10:50.902Z,64.5
2022-10-02T14:12:07.083Z,64.7
2022-10-02T14:13:23.517Z,65
2022-10-02T14:14:38.716Z,65.1
2022-10-02T14:15:54.890Z,65.2
2022-10-02T14:17:11.086Z,65.3
2022-10-02T14:18:27.043Z,65.3
2022-10-02T14:19:43.451Z,65.3
2022-10-02T14:20:59.638Z,65.4
2022-10-02T14:22:15.838Z,65.4
2022-10-02T14:23:32.025Z,65.4
2022-10-02T14:24:48.202Z,65.4
2022-10-02T14:26:04.388Z,65.5
2022-10-02T14:27:20.589Z,65.5
2022-10-02T14:28:36.775Z,65.5
2022-10-02T14:29:52.955Z,65.6
2022-10-02T14:31:08.171Z,65.5
2022-10-02T14:32:24.114Z,65.6
2022-10-02T14:33:40.297Z,65.7
2022-10-02T14:34:56.720Z,65.8
2022-10-02T14:36:12.915Z,65.8
2022-10-02T14:37:29.089Z,65.8
2022-10-02T14:38:45.295Z,65.8
2022-10-02T14:40:01.470Z,65.8
2022-10-02T14:41:17.432Z,65.9
2022-10-02T14:42:33.842Z,65.9
2022-10-02T14:43:50.042Z,65.7
2022-10-02T14:45:06.223Z,65.9
2022-10-02T14:46:22.180Z,65.8
2022-10-02T14:47:37.604Z,66.1
2022-10-02T14:48:53.563Z,65.9
2022-10-02T14:50:09.994Z,65.9
2022-10-02T14:51:26.185Z,65.9
2022-10-02T14:52:42.358Z,66
2022-10-02T14:53:58.547Z,66.2
2022-10-02T14:55:14.000Z,66.1
2022-10-02T14:56:30.920Z,66.2
2022-10-02T14:57:47.111Z,66.3
2022-10-02T14:59:03.301Z,66
2022-10-02T15:00:19.477Z,66.2
2022-10-02T15:01:35.425Z,66.3
2022-10-02T15:02:51.858Z,66.3
2022-10-02T15:04:06.823Z,66.4
2022-10-02T15:05:23.014Z,66.3
2022-10-02T15:06:39.441Z,66.3
2022-10-02T15:07:55.382Z,66.6
2022-10-02T15:09:11.565Z,66.4
2022-10-02T15:10:27.756Z,66.4
2022-10-02T15:11:44.196Z,66.5
2022-10-02T15:13:00.368Z,66.4
2022-10-02T15:14:16.569Z,66.6
2022-10-02T15:15:32.760Z,66.5
2022-10-02T15:16:48.696Z,66.6
2022-10-02T15:18:05.135Z,66.4
2022-10-02T15:19:21.308Z,66.8
2022-10-02T15:20:36.521Z,67
2022-10-02T15:21:52.704Z,66.9
2022-10-02T15:23:08.639Z,66.9
2022-10-02T15:24:25.074Z,67
2022-10-02T15:25:41.264Z,66.9
2022-10-02T15:26:57.205Z,66.9
2022-10-02T15:28:13.633Z,67
2022-10-02T15:29:29.828Z,66.9
2022-10-02T15:30:46.017Z,67.2
2022-10-02T15:32:02.211Z,67.1
2022-10-02T15:33:18.394Z,67
2022-10-02T15:34:34.572Z,67.3
2022-10-02T15:35:50.765Z,67.1
2022-10-02T15:37:05.966Z,67
2022-10-02T15:38:22.159Z,67.1
2022-10-02T15:39:38.349Z,67.2
2022-10-02T15:40:54.277Z,67
2022-10-02T15:42:10.462Z,67.2
2022-10-02T15:43:26.905Z,67.1
2022-10-02T15:44:43.094Z,67.1
2022-10-02T15:45:59.272Z,66.9
2022-10-02T15:47:15.465Z,67.1
2022-10-02T15:48:31.412Z,67
2022-10-02T15:49:47.584Z,67.1
2022-10-02T15:51:04.019Z,67.1
2022-10-02T15:52:20.215Z,67.3
2022-10-02T15:53:35.426Z,67.4
2022-10-02T15:54:51.612Z,67.4
2022-10-02T15:56:07.802Z,67.4
2022-10-02T15:57:23.979Z,67.4
2022-10-02T15:58:40.159Z,67.5
2022-10-02T15:59:56.348Z,67.3
2022-10-02T16:01:12.283Z,67.4
2022-10-02T16:02:28.478Z,67.6
2022-10-02T16:03:44.925Z,67.6
2022-10-02T16:05:00.853Z,67.6
2022-10-02T16:06:17.281Z,67.7
2022-10-02T16:07:33.483Z,67.6
2022-10-02T16:08:49.672Z,67.7
2022-10-02T16:10:04.877Z,67.6
2022-10-02T16:11:21.049Z,67.9
2022-10-02T16:12:37.248Z,67.9
2022-10-02T16:13:53.436Z,68
2022-10-02T16:15:09.627Z,67.9
2022-10-02T16:16:25.798Z,68
2022-10-02T16:17:41.990Z,68
2022-10-02T16:18:58.181Z,68.1
2022-10-02T16:20:14.106Z,68.1
2022-10-02T16:21:30.562Z,68
2022-10-02T16:22:46.751Z,68.1
2022-10-02T16:24:02.924Z,68.3
2022-10-02T16:25:19.113Z,68.3
2022-10-02T16:26:34.064Z,68.3
2022-10-02T16:27:50.256Z,68.4
2022-10-02T16:29:06.706Z,68.5
2022-10-02T16:30:22.891Z,68.3
2022-10-02T16:31:39.080Z,68.3
2022-10-02T16:32:55.021Z,68.3
2022-10-02T16:34:11.191Z,68.5
2022-10-02T16:35:27.383Z,68.5
2022-10-02T16:36:43.573Z,68.5
2022-10-02T16:38:00.020Z,68.5
2022-10-02T16:39:15.963Z,68.5
2022-10-02T16:40:32.402Z,68.7
2022-10-02T16:41:48.589Z,68.8
2022-10-02T16:43:03.799Z,68.8
2022-10-02T16:44:19.981Z,68.8
2022-10-02T16:45:36.164Z,68.8
2022-10-02T16:46:52.357Z,68.8
2022-10-02T16:48:08.548Z,68.8
2022-10-02T16:49:24.478Z,68.8
2022-10-02T16:50:40.920Z,69
2022-10-02T16:51:56.851Z,69
2022-10-02T16:53:13.053Z,69
2022-10-02T16:54:29.227Z,69
2022-10-02T16:55:45.419Z,69
2022-10-02T16:57:01.873Z,69
2022-10-02T16:58:17.808Z,69
2022-10-02T16:59:33.261Z,69
2022-10-02T17:00:49.463Z,69
2022-10-02T17:02:05.639Z,69.2
2022-10-02T17:03:21.840Z,69.2